createdAt,value
2024-01-16T00:02:30.295Z,97954.63
2024-01-16T00:07:33.826Z,97958.56
2024-01-16T00:12:35.814Z,97960.75
2024-01-16T00:17:37.776Z,97963.81
2024-01-16T00:22:39.715Z,97973.16
2024-01-16T00:27:42.059Z,97963.06
2024-01-16T00:32:44.272Z,97964.31
2024-01-16T00:37:46.337Z,97971.50
2024-01-16T00:42:48.294Z,97965.38
2024-01-16T00:47:50.576Z,97978.25
2024-01-16T00:52:52.474Z,97982.09
2024-01-16T00:57:55.003Z,97977.88
2024-01-16T01:02:56.873Z,97988.28
2024-01-16T01:07:59.513Z,97999.06
2024-01-16T01:13:01.337Z,97995.84
2024-01-16T01:18:03.550Z,97993.38
2024-01-16T01:23:05.603Z,97999.03
2024-01-16T01:28:07.511Z,97997.56
2024-01-16T01:33:09.907Z,98016.22
2024-01-16T01:38:11.841Z,98021.03
2024-01-16T01:43:31.925Z,98020.44
2024-01-16T01:48:34.388Z,98028.28
2024-01-16T01:53:37.831Z,98035.03
2024-01-16T01:58:40.116Z,98019.53
2024-01-16T02:31:41.590Z,98058.38
2024-01-16T02:36:43.502Z,98060.50
2024-01-16T02:41:45.413Z,98067.28
2024-01-16T02:46:47.323Z,98065.28
2024-01-16T02:51:49.132Z,98065.59
2024-01-16T02:56:51.675Z,98071.44
2024-01-16T03:01:53.589Z,98084.97
2024-01-16T03:06:55.922Z,98091.00
2024-01-16T03:11:59.025Z,98092.31
2024-01-16T03:17:04.723Z,98090.50
2024-01-16T03:22:06.571Z,98095.09
2024-01-16T03:27:08.417Z,98095.28
2024-01-16T03:32:10.306Z,98086.53
2024-01-16T03:37:12.063Z,98093.94
2024-01-16T03:42:16.259Z,98102.94
2024-01-16T03:47:18.313Z,98087.78
2024-01-16T03:52:20.352Z,98078.84
2024-01-16T03:57:22.207Z,98081.25
2024-01-16T04:02:24.020Z,98076.59
2024-01-16T04:07:27.669Z,98073.63
2024-01-16T04:12:29.608Z,98095.13
2024-01-16T04:17:32.776Z,98109.03
2024-01-16T04:22:34.701Z,98116.75
2024-01-16T04:27:36.553Z,98126.13
2024-01-16T04:32:38.588Z,98141.72
2024-01-16T04:37:40.858Z,98158.09
2024-01-16T04:42:43.652Z,98170.78
2024-01-16T04:47:45.662Z,98173.47
2024-01-16T04:52:47.591Z,98181.66
2024-01-16T04:57:49.379Z,98192.97
2024-01-16T05:02:52.917Z,98197.88
2024-01-16T05:07:55.014Z,98216.44
2024-01-16T05:12:56.959Z,98218.28
2024-01-16T05:17:59.003Z,98228.50
2024-01-16T05:23:01.575Z,98212.41
2024-01-16T05:28:03.825Z,98214.03
2024-01-16T05:33:05.764Z,98201.47
2024-01-16T05:38:08.028Z,98226.38
2024-01-16T05:43:12.897Z,98235.22
2024-01-16T05:48:14.849Z,98251.78
2024-01-16T05:53:17.700Z,98246.63
2024-01-16T05:58:19.518Z,98265.31
2024-01-16T06:03:21.328Z,98265.06
2024-01-16T06:08:23.176Z,98268.44
2024-01-16T06:13:24.956Z,98283.59
2024-01-16T06:18:26.887Z,98302.44
2024-01-16T06:23:28.795Z,98322.44
2024-01-16T06:28:30.638Z,98327.59
2024-01-16T06:33:32.724Z,98339.47
2024-01-16T06:38:34.690Z,98349.16
2024-01-16T06:43:36.533Z,98348.66
2024-01-16T06:48:39.423Z,98354.69
2024-01-16T06:53:41.417Z,98362.91
2024-01-16T06:58:43.338Z,98362.69
2024-01-16T07:03:45.327Z,98380.16
2024-01-16T07:08:47.367Z,98382.03
2024-01-16T07:13:49.337Z,98389.59
2024-01-16T07:18:51.459Z,98389.84
2024-01-16T07:23:53.444Z,98388.47
2024-01-16T07:28:55.313Z,98403.41
2024-01-16T07:33:58.330Z,98399.06
2024-01-16T07:39:00.204Z,98413.03
2024-01-16T07:44:02.019Z,98428.53
2024-01-16T07:49:03.949Z,98428.56
2024-01-16T07:54:10.749Z,98449.88
2024-01-16T07:59:12.682Z,98436.16
2024-01-16T08:04:14.985Z,98448.34
2024-01-16T08:09:16.870Z,98453.19
2024-01-16T08:14:18.879Z,98443.66
2024-01-16T08:19:20.922Z,98454.91
2024-01-16T08:24:23.947Z,98448.94
2024-01-16T08:29:25.960Z,98462.03
2024-01-16T08:34:27.807Z,98463.50
2024-01-16T08:39:29.969Z,98477.09
2024-01-16T08:44:31.756Z,98489.31
2024-01-16T08:49:39.706Z,98477.06
2024-01-16T08:54:41.709Z,98484.03
2024-01-16T08:59:44.013Z,98490.25
2024-01-16T09:04:46.682Z,98504.56
2024-01-16T09:09:48.530Z,98503.25
2024-01-16T09:14:50.474Z,98513.97
2024-01-16T09:19:52.671Z,98511.34
2024-01-16T09:24:54.613Z,98541.94
2024-01-16T09:29:56.640Z,98511.44
2024-01-16T09:34:59.475Z,98518.19
2024-01-16T09:40:01.406Z,98517.72
2024-01-16T09:45:04.336Z,98523.31
2024-01-16T09:50:06.811Z,98526.47
2024-01-16T09:55:09.011Z,98523.22
2024-01-16T10:00:15.357Z,98528.00
2024-01-16T10:05:17.364Z,98529.72
2024-01-16T10:10:27.163Z,98522.03
2024-01-16T10:15:37.581Z,98511.63
2024-01-16T10:20:40.915Z,98519.25
2024-01-16T10:25:43.029Z,98513.13
2024-01-16T10:30:45.308Z,98508.38
2024-01-16T10:35:47.226Z,98516.16
2024-01-16T10:40:49.055Z,98499.41
2024-01-16T10:46:07.675Z,98515.63
2024-01-16T10:51:13.193Z,98507.63
2024-01-16T10:56:16.850Z,98509.75
2024-01-16T11:01:19.708Z,98508.00
2024-01-16T11:06:21.736Z,98504.56
2024-01-16T11:11:24.808Z,98504.50
2024-01-16T11:16:27.750Z,98504.38
2024-01-16T11:21:31.181Z,98498.84
2024-01-16T11:26:40.947Z,98489.72
2024-01-16T11:31:45.694Z,98489.34
2024-01-16T11:36:57.230Z,98489.16
2024-01-16T11:42:00.246Z,98489.16
2024-01-16T11:47:04.226Z,98487.81
2024-01-16T11:52:06.733Z,98473.94
2024-01-16T11:57:08.702Z,98481.41
2024-01-16T12:02:19.095Z,98478.13
2024-01-16T12:07:21.041Z,98471.56
2024-01-16T12:12:23.066Z,98468.84
2024-01-16T12:17:25.272Z,98453.94
2024-01-16T12:22:27.802Z,98454.06
2024-01-16T12:27:29.752Z,98447.13
2024-01-16T12:32:32.406Z,98443.78
2024-01-16T12:37:34.666Z,98438.56
2024-01-16T12:42:36.854Z,98434.91
2024-01-16T12:47:39.237Z,98431.84
2024-01-16T12:52:44.316Z,98429.81
2024-01-16T12:57:47.156Z,98424.63
2024-01-16T13:02:53.736Z,98430.94
2024-01-16T13:08:05.347Z,98420.72
2024-01-16T13:13:20.979Z,98421.78
2024-01-16T13:18:25.023Z,98418.44
2024-01-16T13:23:28.118Z,98409.59
2024-01-16T13:28:30.738Z,98418.28
2024-01-16T13:33:33.353Z,98409.50
2024-01-16T13:38:35.524Z,98417.00
2024-01-16T13:43:38.842Z,98416.19
2024-01-16T13:48:42.331Z,98409.81
2024-01-16T13:53:44.498Z,98412.41
2024-01-16T13:58:46.826Z,98424.97
2024-01-16T14:03:48.818Z,98414.59
2024-01-16T14:08:50.713Z,98408.81
2024-01-16T14:13:56.530Z,98405.00
2024-01-16T14:19:01.809Z,98402.44
2024-01-16T14:24:04.413Z,98392.34
2024-01-16T14:29:07.612Z,98410.03
2024-01-16T14:34:14.516Z,98410.47
2024-01-16T14:39:19.168Z,98405.66
2024-01-16T14:44:21.341Z,98403.38
2024-01-16T14:49:23.493Z,98405.72
2024-01-16T14:54:25.749Z,98408.66
2024-01-16T14:59:27.654Z,98418.53
2024-01-16T15:04:29.654Z,98415.19
2024-01-16T15:09:31.485Z,98429.25
2024-01-16T15:14:35.195Z,98425.19
2024-01-16T15:19:38.628Z,98421.63
2024-01-16T15:24:41.336Z,98436.06
2024-01-16T15:29:43.584Z,98444.38
2024-01-16T15:34:45.822Z,98452.84
2024-01-16T15:39:47.751Z,98455.78
2024-01-16T15:44:49.715Z,98469.59
2024-01-16T15:49:51.817Z,98479.13
2024-01-16T15:54:54.657Z,98464.13
2024-01-16T15:59:56.652Z,98467.91
2024-01-16T16:04:59.703Z,98477.84
2024-01-16T16:10:01.886Z,98486.41
2024-01-16T16:15:05.303Z,98488.66
2024-01-16T16:20:10.526Z,98492.25
2024-01-16T16:25:12.398Z,98488.25
2024-01-16T16:30:15.054Z,98460.94
2024-01-16T16:35:17.434Z,98462.06
2024-01-16T16:40:19.286Z,98467.78
2024-01-16T16:45:21.061Z,98472.38
2024-01-16T16:50:23.281Z,98456.91
2024-01-16T16:55:25.288Z,98459.06
2024-01-16T17:00:28.018Z,98456.09
2024-01-16T17:05:30.611Z,98460.63
2024-01-16T17:10:33.011Z,98462.19
2024-01-16T17:15:34.900Z,98444.19
2024-01-16T17:20:36.985Z,98440.41
2024-01-16T17:25:39.007Z,98448.38
2024-01-16T17:30:41.179Z,98445.69
2024-01-16T17:35:43.377Z,98450.09
2024-01-16T17:40:45.454Z,98444.31
2024-01-16T17:45:47.620Z,98440.59
2024-01-16T17:50:50.031Z,98435.28
2024-01-16T17:55:51.917Z,98429.44
2024-01-16T18:00:54.470Z,98430.25
2024-01-16T18:05:56.780Z,98424.91
2024-01-16T18:10:58.688Z,98423.66
2024-01-16T18:16:05.992Z,98424.81
2024-01-16T18:21:08.801Z,98421.50
2024-01-16T18:26:13.486Z,98416.41
2024-01-16T18:31:17.587Z,98427.28
2024-01-16T18:36:21.223Z,98431.53
2024-01-16T18:41:23.245Z,98433.78
2024-01-16T18:46:26.543Z,98424.34
2024-01-16T18:51:28.390Z,98429.22
2024-01-16T18:56:30.202Z,98421.56
2024-01-16T19:01:32.365Z,98416.97
2024-01-16T19:06:34.519Z,98415.69
2024-01-16T19:11:36.419Z,98412.72
2024-01-16T19:16:38.239Z,98406.78
2024-01-16T19:21:40.858Z,98402.94
2024-01-16T19:26:44.871Z,98404.91
2024-01-16T19:31:47.423Z,98408.19
2024-01-16T19:36:53.848Z,98404.91
2024-01-16T19:41:57.638Z,98393.41
2024-01-16T19:47:00.874Z,98403.31
2024-01-16T19:52:02.769Z,98402.75
2024-01-16T19:57:06.896Z,98409.28
2024-01-16T20:02:11.351Z,98418.84
2024-01-16T20:07:15.354Z,98422.38
2024-01-16T20:17:23.420Z,98418.00
2024-01-16T20:22:25.310Z,98407.13
2024-01-16T20:27:27.704Z,98404.69
2024-01-16T20:32:30.052Z,98399.22
2024-01-16T20:37:31.982Z,98392.72
2024-01-16T20:42:33.989Z,98388.09
2024-01-16T20:47:38.290Z,98385.94
2024-01-16T20:52:40.467Z,98381.28
2024-01-16T20:57:44.025Z,98380.47
2024-01-16T21:02:45.959Z,98373.91
2024-01-16T21:07:48.041Z,98381.53
2024-01-16T21:12:50.464Z,98389.13
2024-01-16T21:17:53.346Z,98373.34
2024-01-16T21:23:09.404Z,98364.59
2024-01-16T21:28:11.347Z,98357.25
2024-01-16T21:33:13.905Z,98344.19
2024-01-16T21:38:17.776Z,98337.91
2024-01-16T21:43:19.634Z,98348.50
2024-01-16T21:48:21.625Z,98349.06
2024-01-16T21:53:23.554Z,98337.91
2024-01-16T21:58:26.649Z,98338.19
2024-01-16T22:03:29.420Z,98336.53
2024-01-16T22:08:31.279Z,98325.91
2024-01-16T22:13:33.281Z,98323.97
2024-01-16T22:18:36.203Z,98321.78
2024-01-16T22:23:38.240Z,98308.94
2024-01-16T22:28:44.885Z,98289.84
2024-01-16T22:33:46.923Z,98293.34
2024-01-16T22:38:48.883Z,98280.84
2024-01-16T22:43:50.693Z,98280.53
2024-01-16T22:48:53.152Z,98294.38
2024-01-16T22:53:55.106Z,98294.34
2024-01-16T22:58:57.799Z,98291.84
2024-01-16T23:04:02.412Z,98283.41
2024-01-16T23:09:06.797Z,98270.03
2024-01-16T23:14:08.704Z,98265.19
2024-01-16T23:19:11.755Z,98255.06
2024-01-16T23:24:13.761Z,98250.94
2024-01-16T23:29:15.614Z,98251.66
2024-01-16T23:34:17.526Z,98238.63
2024-01-16T23:39:19.408Z,98227.72
2024-01-16T23:44:21.354Z,98223.63
2024-01-16T23:49:23.292Z,98208.41
2024-01-16T23:54:25.157Z,98199.63
2024-01-16T23:59:27.085Z,98195.22
